Time;durP1;ratioP1;P1;durP2;ratioP2;P2;SDS_P1;SDS_P2;PMS_P1;PMS_P2;Temp;Humidity;BMP_temperature;BMP_pressure;BME280_temperature;BME280_humidity;BME280_pressure;Samples;Min_cycle;Max_cycle;Signal;HPM_P1;HPM_P2
2021/11/05 00:00:00;;;;;;;51.95;27.58;;;7.00;99.90;;;;;;5014872;28;20041;-79
2021/11/05 00:02:29;;;;;;;36.30;23.08;;;7.10;99.90;;;;;;5015039;28;20080;-80
2021/11/05 00:04:56;;;;;;;44.45;27.15;;;7.10;99.90;;;;;;5015178;28;20460;-80
2021/11/05 00:07:22;;;;;;;48.63;25.75;;;7.00;99.90;;;;;;5015035;28;20393;-80
2021/11/05 00:09:47;;;;;;;47.63;26.98;;;7.00;99.90;;;;;;5015006;28;20107;-80
2021/11/05 00:12:13;;;;;;;46.05;28.80;;;7.00;99.90;;;;;;5015205;28;20026;-80
2021/11/05 00:14:41;;;;;;;52.33;26.67;;;7.10;99.90;;;;;;5015322;28;20498;-79
2021/11/05 00:17:07;;;;;;;;;;;7.10;99.90;;;;;;5015733;28;20424;-80
2021/11/05 00:19:32;;;;;;;52.15;27.38;;;7.10;99.90;;;;;;5014864;28;19961;-78
2021/11/05 00:21:58;;;;;;;46.80;28.05;;;7.10;99.90;;;;;;5014890;28;20052;-79
2021/11/05 00:24:24;;;;;;;48.67;28.50;;;7.20;99.90;;;;;;5014738;28;20137;-80
2021/11/05 00:26:50;;;;;;;46.60;25.77;;;7.20;99.90;;;;;;5014763;28;20028;-80
2021/11/05 00:29:16;;;;;;;48.85;27.52;;;7.30;99.90;;;;;;5014810;28;20018;-81
2021/11/05 00:31:42;;;;;;;45.80;27.35;;;7.40;99.90;;;;;;5015083;28;20022;-79
2021/11/05 00:34:07;;;;;;;46.05;25.98;;;7.50;99.90;;;;;;5014603;28;20081;-81
2021/11/05 00:36:33;;;;;;;50.10;27.88;;;7.50;99.90;;;;;;4995832;28;20140;-80
2021/11/05 00:38:59;;;;;;;47.47;26.52;;;7.50;99.90;;;;;;5011374;28;20394;-80
2021/11/05 00:41:25;;;;;;;41.92;26.38;;;7.50;99.90;;;;;;4996445;28;20065;-79
2021/11/05 00:43:51;;;;;;;45.80;26.27;;;7.50;99.90;;;;;;4999891;28;20372;-79
2021/11/05 00:46:17;;;;;;;44.72;24.10;;;7.50;99.90;;;;;;4998421;28;20026;-80
2021/11/05 00:48:42;;;;;;;44.67;25.38;;;7.50;99.90;;;;;;4994998;28;20026;-79
2021/11/05 00:51:08;;;;;;;45.22;26.58;;;7.50;99.90;;;;;;4995292;28;20027;-80
2021/11/05 00:53:34;;;;;;;43.25;23.63;;;7.60;99.90;;;;;;4999212;28;20033;-78
2021/11/05 00:56:00;;;;;;;52.63;29.45;;;7.60;99.90;;;;;;4995534;28;20478;-81
2021/11/05 00:58:26;;;;;;;56.10;30.33;;;7.60;99.90;;;;;;5005696;28;20022;-82
2021/11/05 01:00:52;;;;;;;53.10;27.50;;;7.70;99.90;;;;;;5008018;28;20023;-81
2021/11/05 01:03:18;;;;;;;50.40;28.05;;;7.80;99.90;;;;;;4994674;28;20022;-79
2021/11/05 01:05:43;;;;;;;46.25;28.40;;;7.80;99.90;;;;;;4994527;28;20208;-81
2021/11/05 01:08:10;;;;;;;52.35;28.52;;;7.80;99.90;;;;;;4994269;28;20365;-81
2021/11/05 01:10:37;;;;;;;49.58;28.63;;;7.90;99.90;;;;;;4994448;28;20025;-79
2021/11/05 01:13:05;;;;;;;64.25;30.38;;;7.90;99.90;;;;;;4994518;28;20388;-79
2021/11/05 01:15:31;;;;;;;58.78;30.77;;;7.90;99.90;;;;;;4994445;28;20030;-82
2021/11/05 01:17:57;;;;;;;50.42;28.73;;;7.90;99.90;;;;;;4992974;28;20574;-80
2021/11/05 01:20:24;;;;;;;57.53;30.17;;;8.00;99.90;;;;;;4994305;28;20118;-80
2021/11/05 01:22:50;;;;;;;55.70;31.13;;;8.00;99.90;;;;;;4994540;28;20023;-84
2021/11/05 01:25:16;;;;;;;60.92;29.88;;;8.10;99.90;;;;;;4994204;28;20031;-83
2021/11/05 01:27:46;;;;;;;58.75;29.45;;;8.10;99.90;;;;;;4994277;28;20400;-83
2021/11/05 01:30:13;;;;;;;57.92;31.63;;;8.20;99.90;;;;;;4994145;28;20108;-82
2021/11/05 01:32:40;;;;;;;;;;;8.30;99.90;;;;;;4993264;28;20451;-82
2021/11/05 01:35:07;;;;;;;62.10;30.65;;;8.30;99.90;;;;;;5009648;28;20052;-80
2021/11/05 01:37:33;;;;;;;61.33;32.53;;;8.30;99.90;;;;;;5013850;28;20030;-80
2021/11/05 01:40:02;;;;;;;63.97;30.52;;;8.30;99.90;;;;;;5013306;28;20404;-81
2021/11/05 01:42:28;;;;;;;65.22;33.88;;;8.30;99.90;;;;;;5013137;28;20018;-79
2021/11/05 01:44:54;;;;;;;63.08;31.10;;;8.30;99.90;;;;;;5012241;28;20022;-79
2021/11/05 01:47:23;;;;;;;53.92;29.38;;;8.30;99.90;;;;;;5012139;28;20037;-80
2021/11/05 01:49:48;;;;;;;61.95;31.33;;;8.30;99.90;;;;;;5013226;28;20063;-79
2021/11/05 01:52:15;;;;;;;64.10;31.85;;;8.30;99.90;;;;;;5012956;28;20053;-77
2021/11/05 01:54:42;;;;;;;70.97;34.65;;;8.30;99.90;;;;;;5005444;28;20037;-78
2021/11/05 01:57:08;;;;;;;54.20;29.63;;;8.30;99.90;;;;;;5011452;28;20041;-76
2021/11/05 01:59:37;;;;;;;65.55;30.90;;;8.40;99.90;;;;;;5013078;28;20033;-78
2021/11/05 02:02:06;;;;;;;62.67;31.52;;;8.40;99.90;;;;;;5011391;28;20025;-78
2021/11/05 02:04:33;;;;;;;64.60;32.75;;;8.40;99.90;;;;;;5012876;28;20116;-77
2021/11/05 02:06:59;;;;;;;65.57;35.53;;;8.50;99.90;;;;;;5012948;28;20368;-79
2021/11/05 02:09:28;;;;;;;64.22;31.23;;;8.50;99.90;;;;;;5012652;28;20037;-78
2021/11/05 02:11:58;;;;;;;68.13;35.78;;;8.60;99.90;;;;;;5012617;28;20032;-77
2021/11/05 02:14:25;;;;;;;67.20;33.47;;;8.60;99.90;;;;;;5012675;28;20053;-77
2021/11/05 02:16:54;;;;;;;;;;;8.60;99.90;;;;;;5013272;28;20018;-78
2021/11/05 02:19:22;;;;;;;60.30;30.38;;;8.60;99.90;;;;;;5012536;28;19914;-78
2021/11/05 02:21:51;;;;;;;71.75;34.97;;;8.60;99.90;;;;;;5012758;28;20033;-79
2021/11/05 02:24:17;;;;;;;64.18;35.13;;;8.70;99.90;;;;;;5012621;28;20025;-78
2021/11/05 02:26:44;;;;;;;68.57;35.97;;;8.70;99.90;;;;;;5012774;28;20097;-78
2021/11/05 02:29:11;;;;;;;61.83;33.97;;;8.70;99.90;;;;;;5012744;28;20014;-78
2021/11/05 02:31:37;;;;;;;62.93;32.13;;;8.70;99.90;;;;;;5012765;28;20022;-79
2021/11/05 02:34:04;;;;;;;66.57;31.63;;;8.80;99.90;;;;;;5012484;28;20616;-77
2021/11/05 02:36:30;;;;;;;61.90;31.67;;;8.80;99.90;;;;;;5012435;28;20026;-77
2021/11/05 02:38:57;;;;;;;73.25;34.88;;;8.90;99.90;;;;;;5012470;28;20065;-79
2021/11/05 02:41:23;;;;;;;58.90;33.00;;;8.90;99.90;;;;;;4995137;28;20025;-79
2021/11/05 02:43:50;;;;;;;60.28;34.03;;;9.00;99.90;;;;;;5012791;28;20391;-78
2021/11/05 02:46:16;;;;;;;66.22;35.58;;;9.00;99.90;;;;;;5012341;28;20018;-78
2021/11/05 02:48:42;;;;;;;65.60;35.35;;;9.10;99.90;;;;;;5012218;28;20114;-77
2021/11/05 02:51:09;;;;;;;69.05;36.25;;;9.10;99.90;;;;;;4995027;28;20096;-78
2021/11/05 02:53:36;;;;;;;61.60;32.03;;;9.20;99.90;;;;;;5012682;28;20057;-78
2021/11/05 02:56:03;;;;;;;62.60;30.80;;;9.30;99.90;;;;;;5012436;28;20034;-78
2021/11/05 02:58:29;;;;;;;64.53;32.22;;;9.30;99.90;;;;;;4994849;28;20290;-78
2021/11/05 03:00:56;;;;;;;57.10;30.10;;;9.30;99.90;;;;;;5012445;28;20398;-79
2021/11/05 03:03:22;;;;;;;60.40;34.72;;;9.30;99.90;;;;;;5013457;28;20022;-77
2021/11/05 03:05:48;;;;;;;65.22;33.33;;;9.30;99.90;;;;;;5012388;28;20537;-80
2021/11/05 03:08:13;;;;;;;58.42;31.35;;;9.30;99.90;;;;;;5012489;28;20021;-78
2021/11/05 03:10:39;;;;;;;63.40;31.83;;;9.30;99.90;;;;;;5012400;28;20101;-78
2021/11/05 03:13:05;;;;;;;60.15;32.22;;;9.30;99.90;;;;;;5014992;28;20494;-77
2021/11/05 03:15:31;;;;;;;64.32;33.83;;;9.30;99.90;;;;;;5016111;28;20053;-76
2021/11/05 03:18:00;;;;;;;65.10;33.03;;;9.30;99.90;;;;;;5017205;28;20395;-77
2021/11/05 03:20:25;;;;;;;56.08;33.33;;;9.30;99.90;;;;;;5020464;28;20121;-77
2021/11/05 03:22:52;;;;;;;74.40;35.25;;;9.40;99.90;;;;;;5016887;28;20120;-77
2021/11/05 03:25:19;;;;;;;56.63;31.47;;;9.40;99.90;;;;;;5018965;28;20035;-77
2021/11/05 03:27:45;;;;;;;62.40;33.22;;;9.40;99.90;;;;;;5016961;28;20018;-77
2021/11/05 03:30:13;;;;;;;64.10;32.75;;;9.40;99.90;;;;;;5016179;28;20026;-78
2021/11/05 03:32:40;;;;;;;57.17;32.40;;;9.40;99.90;;;;;;5015726;28;20018;-78
2021/11/05 03:35:08;;;;;;;58.85;29.10;;;9.40;99.90;;;;;;5015622;28;20036;-79
2021/11/05 03:37:34;;;;;;;65.18;34.30;;;9.40;99.90;;;;;;5015985;28;20394;-78
2021/11/05 03:40:02;;;;;;;67.53;32.20;;;9.40;99.90;;;;;;5015979;28;20034;-77
2021/11/05 03:42:28;;;;;;;66.72;36.17;;;9.50;99.90;;;;;;5015628;28;20037;-78
2021/11/05 03:44:54;;;;;;;63.40;33.60;;;9.50;99.90;;;;;;5015587;28;20026;-78
2021/11/05 03:47:20;;;;;;;61.60;28.63;;;9.50;99.90;;;;;;5015432;28;20391;-78
2021/11/05 03:49:46;;;;;;;54.47;31.40;;;9.60;99.90;;;;;;5015733;28;20030;-78
2021/11/05 03:52:11;;;;;;;57.70;31.20;;;9.60;99.90;;;;;;5015429;28;20428;-78
2021/11/05 03:54:37;;;;;;;65.40;34.33;;;9.60;99.90;;;;;;4997275;28;20036;-79
2021/11/05 03:57:03;;;;;;;65.72;33.03;;;9.60;99.90;;;;;;5015166;28;20042;-78
2021/11/05 03:59:29;;;;;;;69.60;35.92;;;9.60;99.90;;;;;;5013698;28;20042;-77
2021/11/05 04:01:55;;;;;;;51.83;25.05;;;9.60;99.90;;;;;;5015182;28;20025;-78
2021/11/05 04:04:21;;;;;;;62.80;34.83;;;9.60;99.90;;;;;;5015226;28;20026;-78
2021/11/05 04:06:47;;;;;;;54.35;28.90;;;9.60;99.90;;;;;;4997586;28;20076;-79
2021/11/05 04:09:13;;;;;;;65.85;35.88;;;9.70;99.90;;;;;;5015153;28;20034;-79
2021/11/05 04:11:39;;;;;;;63.78;35.17;;;9.70;99.90;;;;;;5014941;28;20041;-79
2021/11/05 04:14:05;;;;;;;62.05;35.88;;;9.70;99.90;;;;;;5014714;28;20025;-78
2021/11/05 04:16:31;;;;;;;64.38;32.88;;;9.80;99.90;;;;;;5015093;28;20387;-79
2021/11/05 04:18:57;;;;;;;54.70;28.55;;;9.80;99.90;;;;;;5014686;28;20105;-80
2021/11/05 04:21:23;;;;;;;69.75;36.13;;;9.80;99.90;;;;;;5014518;28;20022;-79
2021/11/05 04:23:48;;;;;;;59.00;32.95;;;9.80;99.90;;;;;;5014030;28;20029;-79
2021/11/05 04:26:15;;;;;;;59.50;34.05;;;9.90;99.90;;;;;;5014325;28;20045;-79
2021/11/05 04:28:42;;;;;;;55.30;30.90;;;9.90;99.90;;;;;;5014370;28;20049;-79
2021/11/05 04:31:08;;;;;;;67.03;35.20;;;10.00;99.90;;;;;;5014440;28;20014;-79
2021/11/05 04:33:34;;;;;;;57.90;34.85;;;10.00;99.90;;;;;;5015497;28;20041;-79
2021/11/05 04:36:03;;;;;;;60.60;34.80;;;10.00;99.90;;;;;;5014156;28;20022;-78
2021/11/05 04:38:29;;;;;;;62.08;31.38;;;10.10;99.90;;;;;;5014343;28;20065;-79
2021/11/05 04:40:55;;;;;;;65.22;36.13;;;10.10;99.90;;;;;;4996625;28;20107;-78
2021/11/05 04:43:22;;;;;;;65.32;33.58;;;10.10;99.90;;;;;;4996243;28;20029;-78
2021/11/05 04:45:48;;;;;;;63.03;33.60;;;10.10;99.90;;;;;;5014169;28;20026;-79
2021/11/05 04:48:14;;;;;;;60.85;31.40;;;10.10;99.90;;;;;;5014080;28;20025;-79
2021/11/05 04:50:40;;;;;;;64.38;30.50;;;10.10;99.90;;;;;;5011927;28;20041;-78
2021/11/05 04:53:05;;;;;;;53.92;31.52;;;10.10;99.90;;;;;;5011029;28;20100;-78
2021/11/05 04:55:33;;;;;;;56.10;30.30;;;10.10;99.90;;;;;;5012869;28;20056;-77
2021/11/05 04:57:59;;;;;;;57.90;33.55;;;10.20;99.90;;;;;;5013631;28;20041;-77
2021/11/05 05:00:26;;;;;;;60.95;34.83;;;10.20;99.90;;;;;;5013827;28;20037;-78
2021/11/05 05:02:53;;;;;;;51.50;28.70;;;10.20;99.90;;;;;;5013810;28;20021;-79
2021/11/05 05:05:19;;;;;;;59.22;34.78;;;10.30;99.90;;;;;;5013834;28;20030;-79
2021/11/05 05:07:46;;;;;;;59.13;33.95;;;10.30;99.90;;;;;;5013700;28;20434;-79
2021/11/05 05:10:14;;;;;;;63.35;32.65;;;10.30;99.90;;;;;;5013603;28;20050;-77
2021/11/05 05:12:40;;;;;;;;;;;10.30;99.90;;;;;;5012586;28;20029;-78
2021/11/05 05:15:07;;;;;;;57.97;32.50;;;10.30;99.90;;;;;;5013378;28;19980;-80
2021/11/05 05:17:33;;;;;;;54.05;30.75;;;10.30;99.90;;;;;;4995984;28;20475;-80
2021/11/05 05:19:59;;;;;;;64.47;31.73;;;10.30;99.90;;;;;;5013423;28;20080;-78
2021/11/05 05:22:25;;;;;;;49.45;25.33;;;10.40;99.90;;;;;;5012111;28;20479;-77
2021/11/05 05:24:51;;;;;;;59.65;29.35;;;10.40;99.90;;;;;;5013345;28;20026;-79
2021/11/05 05:27:16;;;;;;;54.65;32.05;;;10.40;99.90;;;;;;5012981;28;20018;-78
2021/11/05 05:29:44;;;;;;;54.22;29.15;;;10.40;99.90;;;;;;5013443;28;20022;-78
2021/11/05 05:32:10;;;;;;;54.33;31.73;;;10.40;99.90;;;;;;5013343;28;20014;-78
2021/11/05 05:34:36;;;;;;;57.90;31.73;;;10.40;99.90;;;;;;5013012;28;20034;-78
2021/11/05 05:37:02;;;;;;;55.67;32.03;;;10.40;99.90;;;;;;5012509;28;20440;-78
2021/11/05 05:39:28;;;;;;;54.75;32.55;;;10.40;99.90;;;;;;5013329;28;20192;-79
2021/11/05 05:41:54;;;;;;;52.40;29.48;;;10.40;99.90;;;;;;5012891;28;20100;-79
2021/11/05 05:44:20;;;;;;;55.55;31.00;;;10.40;99.90;;;;;;5012847;28;20030;-80
2021/11/05 05:46:46;;;;;;;54.20;30.63;;;10.50;99.90;;;;;;5013036;28;20018;-78
2021/11/05 05:49:12;;;;;;;47.80;27.95;;;10.50;99.90;;;;;;5012938;28;20078;-78
2021/11/05 05:51:38;;;;;;;50.88;28.50;;;10.50;99.90;;;;;;5012837;28;20502;-79
2021/11/05 05:54:04;;;;;;;46.42;28.77;;;10.50;99.90;;;;;;5013218;28;20497;-78
2021/11/05 05:56:30;;;;;;;42.65;24.30;;;10.50;99.90;;;;;;5012710;28;20363;-80
2021/11/05 05:58:55;;;;;;;53.75;31.48;;;10.50;99.90;;;;;;5012482;28;20030;-80
2021/11/05 06:01:21;;;;;;;45.97;30.05;;;10.50;99.90;;;;;;5013120;28;20022;-78
2021/11/05 06:03:47;;;;;;;53.28;31.70;;;10.50;99.90;;;;;;4995168;28;20368;-78
2021/11/05 06:06:13;;;;;;;50.97;30.02;;;10.50;99.90;;;;;;5013259;28;20084;-79
2021/11/05 06:08:40;;;;;;;44.83;27.75;;;10.60;99.90;;;;;;5012901;28;20110;-79
2021/11/05 06:11:07;;;;;;;47.25;28.45;;;10.50;99.90;;;;;;5012727;28;20104;-79
2021/11/05 06:13:33;;;;;;;54.47;32.92;;;10.50;99.90;;;;;;5012952;28;20125;-78
2021/11/05 06:15:59;;;;;;;46.83;30.95;;;10.60;99.90;;;;;;5012726;28;20110;-78
2021/11/05 06:18:26;;;;;;;42.45;27.05;;;10.60;99.90;;;;;;5012981;28;20053;-79
2021/11/05 06:20:52;;;;;;;42.30;24.67;;;10.60;99.90;;;;;;5013399;28;20089;-79
2021/11/05 06:23:18;;;;;;;41.28;22.60;;;10.60;99.90;;;;;;5014338;28;20109;-77
2021/11/05 06:25:44;;;;;;;58.75;34.50;;;10.60;99.90;;;;;;5014016;28;20037;-80
2021/11/05 06:28:10;;;;;;;51.58;29.98;;;10.60;99.90;;;;;;5013989;28;20103;-79
2021/11/05 06:30:36;;;;;;;43.05;28.27;;;10.50;99.90;;;;;;4997795;28;20037;-80
2021/11/05 06:33:02;;;;;;;49.95;31.40;;;10.60;99.90;;;;;;5008147;28;20391;-79
2021/11/05 06:35:28;;;;;;;45.58;27.45;;;10.70;99.90;;;;;;4995436;28;20521;-80
2021/11/05 06:37:56;;;;;;;45.25;25.83;;;10.70;99.90;;;;;;5012793;28;20157;-79
2021/11/05 06:40:22;;;;;;;47.58;31.45;;;10.70;99.90;;;;;;5012588;28;20045;-79
2021/11/05 06:42:48;;;;;;;54.28;32.95;;;10.70;99.90;;;;;;5012552;28;20034;-79
2021/11/05 06:45:14;;;;;;;49.92;27.88;;;10.60;99.90;;;;;;5012306;28;20034;-78
2021/11/05 06:47:40;;;;;;;45.58;26.60;;;10.60;99.90;;;;;;5014590;28;20392;-78
2021/11/05 06:50:08;;;;;;;57.65;34.40;;;10.60;99.90;;;;;;5000421;28;20478;-79
2021/11/05 06:52:34;;;;;;;66.70;35.65;;;10.40;99.90;;;;;;5016114;28;20036;-80
2021/11/05 06:55:01;;;;;;;51.35;29.33;;;10.30;99.90;;;;;;5016275;28;20077;-80
2021/11/05 06:57:27;;;;;;;61.33;35.00;;;10.30;99.90;;;;;;5015802;28;20049;-79
2021/11/05 06:59:56;;;;;;;56.20;34.42;;;10.10;99.90;;;;;;5015986;28;20442;-78
2021/11/05 07:02:22;;;;;;;57.45;37.45;;;10.10;99.90;;;;;;5016029;28;20022;-79
2021/11/05 07:04:48;;;;;;;51.35;32.83;;;10.00;99.90;;;;;;5016004;28;20037;-80
2021/11/05 07:07:14;;;;;;;67.18;37.97;;;10.00;99.90;;;;;;5016040;28;20088;-80
2021/11/05 07:09:40;;;;;;;54.60;32.13;;;10.00;99.90;;;;;;5016010;28;20041;-79
2021/11/05 07:12:07;;;;;;;61.67;35.60;;;10.10;99.90;;;;;;5016005;28;20022;-80
2021/11/05 07:14:33;;;;;;;53.88;35.13;;;10.10;99.90;;;;;;5016051;28;20030;-78
2021/11/05 07:16:59;;;;;;;56.50;34.10;;;10.10;99.90;;;;;;5017522;28;20014;-78
2021/11/05 07:19:25;;;;;;;55.53;33.88;;;10.20;99.90;;;;;;5017607;28;20037;-78
2021/11/05 07:21:59;;;;;;;50.63;31.30;;;10.20;99.90;;;;;;5017607;28;20049;-79
2021/11/05 07:24:27;;;;;;;55.17;35.60;;;10.30;99.90;;;;;;5016633;28;20570;-80
2021/11/05 07:26:54;;;;;;;;;;;10.40;99.90;;;;;;5015883;28;20446;-79
2021/11/05 07:29:26;;;;;;;44.05;27.05;;;10.40;99.90;;;;;;5015548;28;19905;-78
2021/11/05 07:31:55;;;;;;;54.90;32.63;;;10.40;99.90;;;;;;5015403;28;20017;-79
2021/11/05 07:34:21;;;;;;;52.33;32.15;;;10.50;99.90;;;;;;5006667;28;20018;-79
2021/11/05 07:36:47;;;;;;;43.83;24.85;;;10.60;99.90;;;;;;5007848;28;20379;-79
2021/11/05 07:39:12;;;;;;;49.60;28.05;;;10.60;99.90;;;;;;5015150;28;20026;-78
2021/11/05 07:41:38;;;;;;;53.35;32.30;;;10.60;99.80;;;;;;5015104;28;20045;-79
2021/11/05 07:44:04;;;;;;;48.15;30.88;;;10.60;99.90;;;;;;5015082;28;20053;-79
2021/11/05 07:46:31;;;;;;;45.50;30.08;;;10.60;99.90;;;;;;5014910;28;20037;-78
2021/11/05 07:48:57;;;;;;;48.43;26.67;;;10.70;99.90;;;;;;5015190;28;20498;-79
2021/11/05 07:51:23;;;;;;;47.40;26.15;;;10.70;99.80;;;;;;5015075;28;20026;-79
2021/11/05 07:53:50;;;;;;;47.25;27.83;;;10.70;99.60;;;;;;5015276;28;20477;-80
2021/11/05 07:56:16;;;;;;;54.95;33.90;;;10.70;99.60;;;;;;5014993;28;20504;-79
2021/11/05 07:58:42;;;;;;;47.58;28.30;;;10.70;99.50;;;;;;5013826;28;20025;-80
2021/11/05 08:01:07;;;;;;;54.30;30.90;;;10.70;99.50;;;;;;5014913;28;20093;-79
2021/11/05 08:03:33;;;;;;;51.70;24.77;;;10.80;99.40;;;;;;5014822;28;20041;-79
2021/11/05 08:05:59;;;;;;;46.83;28.48;;;10.80;99.20;;;;;;5014637;28;20026;-79
2021/11/05 08:08:27;;;;;;;48.05;27.92;;;10.80;99.20;;;;;;5014300;28;20014;-80
2021/11/05 08:10:53;;;;;;;50.20;30.60;;;10.80;99.10;;;;;;5014698;28;20149;-79
2021/11/05 08:13:20;;;;;;;47.80;29.27;;;10.90;99.00;;;;;;4997589;28;20068;-78
2021/11/05 08:15:46;;;;;;;45.22;28.52;;;10.90;98.60;;;;;;5014594;28;20475;-79
2021/11/05 08:18:11;;;;;;;40.58;27.92;;;10.90;98.50;;;;;;5014434;28;20506;-79
2021/11/05 08:20:37;;;;;;;46.63;29.92;;;10.90;98.60;;;;;;5014283;28;20034;-79
2021/11/05 08:23:03;;;;;;;50.35;32.75;;;10.90;98.30;;;;;;5014348;28;20053;-78
2021/11/05 08:25:30;;;;;;;44.00;27.13;;;11.00;98.20;;;;;;5015171;28;20022;-79
2021/11/05 08:27:57;;;;;;;44.55;27.15;;;11.00;98.10;;;;;;5015031;28;20104;-78
2021/11/05 08:30:24;;;;;;;40.60;27.52;;;11.00;97.90;;;;;;5014362;28;20026;-80
2021/11/05 08:32:52;;;;;;;45.30;30.37;;;11.00;97.90;;;;;;5014694;28;20021;-78
2021/11/05 08:35:19;;;;;;;49.53;28.23;;;10.90;98.10;;;;;;5012782;28;20511;-79
2021/11/05 08:37:45;;;;;;;;;;;10.90;98.40;;;;;;5014802;28;20076;-79
2021/11/05 08:40:12;;;;;;;41.83;26.42;;;10.80;98.40;;;;;;5012780;28;19917;-78
2021/11/05 08:42:38;;;;;;;50.55;26.27;;;10.70;98.70;;;;;;5014184;28;20032;-80
2021/11/05 08:45:09;;;;;;;45.00;25.50;;;10.70;98.70;;;;;;5014110;28;20479;-79
2021/11/05 08:47:36;;;;;;;44.38;26.73;;;10.70;98.80;;;;;;5012833;28;20053;-79
2021/11/05 08:50:07;;;;;;;;;;;10.70;98.70;;;;;;5013586;28;20161;-79
2021/11/05 08:52:33;;;;;;;38.55;23.65;;;10.80;98.60;;;;;;5013887;28;20316;-79
2021/11/05 08:55:04;;;;;;;45.55;29.10;;;10.80;98.40;;;;;;5013809;28;20022;-80
2021/11/05 08:57:31;;;;;;;49.08;29.15;;;10.80;98.40;;;;;;5013403;28;20045;-79
2021/11/05 08:59:57;;;;;;;49.57;29.13;;;10.80;98.10;;;;;;4996102;28;20129;-80
2021/11/05 09:02:24;;;;;;;43.40;25.08;;;10.90;98.00;;;;;;5013591;28;20259;-79
2021/11/05 09:04:50;;;;;;;45.83;28.77;;;10.90;97.80;;;;;;5013489;28;20022;-79
2021/11/05 09:07:16;;;;;;;45.00;27.05;;;10.90;97.80;;;;;;4995206;28;20025;-80
2021/11/05 09:09:42;;;;;;;42.80;30.13;;;10.90;97.60;;;;;;5009457;28;20030;-80
2021/11/05 09:12:08;;;;;;;46.25;29.17;;;10.90;97.50;;;;;;5012857;28;20379;-81
2021/11/05 09:14:34;;;;;;;37.45;24.48;;;11.00;97.40;;;;;;5009224;28;20094;-79
2021/11/05 09:17:01;;;;;;;40.03;24.35;;;11.00;96.90;;;;;;5011638;28;20392;-80
2021/11/05 09:19:27;;;;;;;51.92;30.63;;;11.00;96.90;;;;;;5013482;28;20033;-80
2021/11/05 09:21:53;;;;;;;33.78;18.45;;;11.00;96.90;;;;;;5013826;28;20022;-77
2021/11/05 09:24:19;;;;;;;41.33;26.13;;;11.00;96.60;;;;;;5013431;28;20475;-78
2021/11/05 09:26:45;;;;;;;35.42;19.52;;;11.00;96.60;;;;;;5009381;28;20022;-78
2021/11/05 09:29:13;;;;;;;44.97;27.23;;;11.00;96.60;;;;;;5013123;28;20105;-80
2021/11/05 09:31:39;;;;;;;31.90;21.10;;;11.00;96.40;;;;;;5011588;28;20380;-79
2021/11/05 09:34:06;;;;;;;38.95;25.08;;;11.10;96.40;;;;;;5012653;28;20068;-80
2021/11/05 09:36:32;;;;;;;36.72;20.77;;;11.10;96.60;;;;;;5011670;28;20057;-81
2021/11/05 09:39:00;;;;;;;36.47;23.83;;;11.10;96.40;;;;;;5012699;28;20058;-78
2021/11/05 09:41:26;;;;;;;41.38;24.17;;;11.00;96.50;;;;;;5012807;28;20030;-77
2021/11/05 09:43:53;;;;;;;43.35;29.65;;;10.90;96.80;;;;;;5012953;28;20045;-78
2021/11/05 09:46:19;;;;;;;44.55;25.95;;;11.00;97.00;;;;;;4994855;28;20108;-79
2021/11/05 09:48:45;;;;;;;40.72;26.25;;;11.00;97.00;;;;;;5011680;28;20084;-80
2021/11/05 09:51:13;;;;;;;43.42;22.30;;;11.00;97.00;;;;;;5012581;28;20022;-79
2021/11/05 09:53:39;;;;;;;39.13;21.05;;;11.00;97.10;;;;;;5012721;28;20482;-79
2021/11/05 09:56:09;;;;;;;41.53;24.35;;;10.90;97.30;;;;;;5013253;28;20407;-84
2021/11/05 09:58:38;;;;;;;38.38;24.58;;;10.90;97.60;;;;;;5015069;28;20071;-84
2021/11/05 10:01:08;;;;;;;39.33;24.83;;;10.90;97.70;;;;;;5016888;28;20423;-83
2021/11/05 10:03:34;;;;;;;44.67;28.23;;;10.90;97.80;;;;;;5006694;28;20116;-82
2021/11/05 10:06:01;;;;;;;37.35;22.60;;;10.90;97.90;;;;;;5007530;28;20022;-81
2021/11/05 10:08:32;;;;;;;41.97;25.38;;;10.80;98.10;;;;;;5011960;28;20470;-83
2021/11/05 10:11:00;;;;;;;45.92;27.55;;;10.70;98.70;;;;;;5012880;28;20033;-83
2021/11/05 10:13:27;;;;;;;49.20;25.55;;;10.50;99.50;;;;;;5012981;28;20022;-79
2021/11/05 10:15:55;;;;;;;34.83;22.37;;;10.40;99.90;;;;;;4998537;28;20030;-79
2021/11/05 10:18:31;;;;;;;37.08;22.45;;;10.30;99.90;;;;;;5012365;28;20290;-79
2021/11/05 10:21:13;;;;;;;46.97;29.92;;;10.30;99.90;;;;;;5004535;28;20077;-81
2021/11/05 10:23:41;;;;;;;51.78;32.05;;;10.20;99.90;;;;;;4985342;28;20034;-80
2021/11/05 10:26:09;;;;;;;54.40;26.83;;;10.20;99.90;;;;;;5009440;28;20018;-82
2021/11/05 10:28:38;;;;;;;;;;;10.20;99.90;;;;;;5016613;28;20049;-81
2021/11/05 10:31:09;;;;;;;42.15;25.27;;;10.30;99.90;;;;;;5022051;28;19905;-81
2021/11/05 10:33:42;;;;;;;48.22;29.00;;;10.30;99.90;;;;;;5029188;28;20077;-80
2021/11/05 10:36:11;;;;;;;44.95;22.83;;;10.40;99.90;;;;;;5014974;28;20048;-79
2021/11/05 10:38:50;;;;;;;50.95;30.70;;;10.50;99.90;;;;;;5011432;28;20030;-80
2021/11/05 10:41:19;;;;;;;48.80;30.50;;;10.50;99.90;;;;;;4999022;28;20041;-80
2021/11/05 10:44:00;;;;;;;50.20;32.15;;;10.50;99.90;;;;;;5007821;28;20026;-81
2021/11/05 10:46:33;;;;;;;52.80;35.53;;;10.60;99.90;;;;;;5014533;28;20053;-82
2021/11/05 10:49:06;;;;;;;54.45;31.40;;;10.70;99.90;;;;;;5017450;28;20056;-81
2021/11/05 10:51:34;;;;;;;49.65;30.15;;;10.80;99.90;;;;;;5019257;28;20051;-80
2021/11/05 10:54:02;;;;;;;47.55;26.70;;;10.90;99.90;;;;;;5016225;28;20022;-79
2021/11/05 10:56:30;;;;;;;50.47;29.20;;;10.90;99.90;;;;;;5016301;28;20042;-81
2021/11/05 10:59:02;;;;;;;45.10;29.55;;;11.00;99.90;;;;;;5010386;28;20026;-83
2021/11/05 11:01:34;;;;;;;41.50;26.70;;;11.00;99.90;;;;;;5016295;28;20030;-81
2021/11/05 11:04:02;;;;;;;42.22;25.25;;;11.00;99.50;;;;;;5012014;28;20044;-80
2021/11/05 11:06:39;;;;;;;46.13;30.23;;;11.10;99.30;;;;;;4998899;28;20030;-80
2021/11/05 11:09:17;;;;;;;50.92;28.35;;;11.10;99.20;;;;;;5015848;28;20433;-80
2021/11/05 11:11:54;;;;;;;47.60;28.00;;;11.20;99.20;;;;;;5015453;28;20057;-79
2021/11/05 11:14:30;;;;;;;44.60;30.58;;;11.30;99.00;;;;;;4997899;28;20221;-80
2021/11/05 11:16:56;;;;;;;57.97;35.47;;;11.20;98.90;;;;;;4996534;28;20107;-81
2021/11/05 11:19:30;;;;;;;53.05;29.17;;;11.20;99.10;;;;;;4978637;28;20163;-79
2021/11/05 11:21:59;;;;;;;56.63;29.42;;;11.30;99.10;;;;;;4996192;28;20063;-79
2021/11/05 11:24:28;;;;;;;47.22;27.75;;;11.30;99.00;;;;;;4996325;28;20027;-81
2021/11/05 11:26:56;;;;;;;46.67;26.67;;;11.30;98.90;;;;;;4996257;28;20018;-79
2021/11/05 11:29:24;;;;;;;58.85;31.77;;;11.30;98.90;;;;;;4996041;28;20026;-79
2021/11/05 11:31:53;;;;;;;47.20;27.65;;;11.30;98.90;;;;;;4994769;28;20382;-79
2021/11/05 11:34:19;;;;;;;58.45;35.72;;;11.20;99.30;;;;;;4995991;28;20069;-81
2021/11/05 11:36:49;;;;;;;46.63;29.70;;;11.10;99.70;;;;;;4997581;28;20107;-79
2021/11/05 11:39:17;;;;;;;58.10;33.63;;;11.00;99.90;;;;;;5003989;28;20049;-80
2021/11/05 11:41:45;;;;;;;60.05;33.45;;;10.90;99.90;;;;;;5017389;28;20088;-80
2021/11/05 11:44:17;;;;;;;62.78;35.05;;;10.80;99.90;;;;;;5015764;28;20018;-79
2021/11/05 11:47:08;;;;;;;53.47;30.15;;;10.70;99.90;;;;;;5012360;28;20022;-79
2021/11/05 11:49:46;;;;;;;62.30;36.92;;;10.80;99.90;;;;;;4996666;28;20081;-80
2021/11/05 11:52:17;;;;;;;59.65;33.10;;;10.80;99.90;;;;;;4995823;28;20026;-80
2021/11/05 11:54:48;;;;;;;60.55;32.40;;;10.90;99.90;;;;;;4978061;28;20030;-79
2021/11/05 11:57:14;;;;;;;64.53;36.90;;;10.90;99.90;;;;;;4995504;28;20499;-80
2021/11/05 11:59:41;;;;;;;59.53;37.30;;;11.00;99.90;;;;;;5015076;28;20029;-79
2021/11/05 12:02:32;;;;;;;63.55;35.58;;;11.00;99.90;;;;;;5015034;28;20026;-80
2021/11/05 12:05:01;;;;;;;56.83;34.38;;;11.10;99.90;;;;;;5004754;28;20038;-79
2021/11/05 12:07:27;;;;;;;62.30;35.28;;;11.10;99.90;;;;;;5013965;28;20080;-78
2021/11/05 12:09:53;;;;;;;64.07;34.45;;;11.10;99.90;;;;;;5014928;28;20025;-81
2021/11/05 12:12:22;;;;;;;58.33;34.50;;;11.00;99.90;;;;;;5015107;28;20423;-79
2021/11/05 12:17:29;;;;;;;63.20;36.55;;;11.00;99.90;;;;;;4995846;28;20023;-80
2021/11/05 12:20:00;;;;;;;65.90;38.17;;;11.00;99.90;;;;;;4995109;28;20141;-82
2021/11/05 12:22:27;;;;;;;72.40;39.33;;;11.00;99.90;;;;;;4994307;28;20026;-78
2021/11/05 12:25:13;;;;;;;62.33;36.17;;;11.00;99.90;;;;;;4996134;28;20034;-78
2021/11/05 12:27:39;;;;;;;71.20;41.58;;;11.00;99.90;;;;;;5004720;28;20028;-78
2021/11/05 12:30:10;;;;;;;71.45;38.70;;;11.00;99.90;;;;;;5014535;28;20033;-78
2021/11/05 12:32:37;;;;;;;60.05;33.58;;;11.00;99.90;;;;;;5014650;28;20021;-80
2021/11/05 12:35:06;;;;;;;68.45;36.33;;;10.90;99.90;;;;;;5014721;28;20189;-80